createdAt,value
2023-05-14T00:00:29.283Z,10.04
2023-05-14T00:04:32.273Z,9.99
2023-05-14T00:08:36.301Z,9.87
2023-05-14T00:12:38.900Z,9.75
2023-05-14T00:16:41.468Z,9.64
2023-05-14T00:20:44.383Z,9.57
2023-05-14T00:24:48.289Z,9.49
2023-05-14T00:28:50.834Z,9.45
2023-05-14T00:32:53.489Z,9.47
2023-05-14T00:36:56.097Z,9.48
2023-05-14T00:41:00.016Z,9.39
2023-05-14T00:45:02.616Z,9.39
2023-05-14T00:49:05.469Z,9.41
2023-05-14T00:53:10.336Z,9.40
2023-05-14T00:57:14.437Z,9.48
2023-05-14T01:01:18.184Z,9.47
2023-05-14T01:05:21.156Z,9.47
2023-05-14T01:09:30.572Z,9.53
2023-05-14T01:13:42.573Z,9.60
2023-05-14T01:18:07.682Z,9.59
2023-05-14T01:22:12.361Z,9.60
2023-05-14T01:26:14.944Z,9.62
2023-05-14T01:30:23.045Z,9.68
2023-05-14T01:34:29.393Z,9.69
2023-05-14T01:38:34.471Z,9.72
2023-05-14T01:42:37.423Z,9.68
2023-05-14T01:46:40.283Z,9.69
2023-05-14T01:50:42.999Z,9.67
2023-05-14T01:54:46.906Z,9.58
2023-05-14T01:58:49.465Z,9.50
2023-05-14T02:02:52.322Z,9.47
2023-05-14T02:06:54.993Z,9.40
2023-05-14T02:10:59.210Z,9.40
2023-05-14T02:15:02.065Z,9.44
2023-05-14T02:19:04.760Z,9.46
2023-05-14T02:23:07.509Z,9.39
2023-05-14T02:27:13.098Z,9.34
2023-05-14T02:31:17.605Z,9.31
2023-05-14T02:35:20.298Z,9.32
2023-05-14T02:39:22.927Z,9.30
2023-05-14T02:43:26.940Z,9.28
2023-05-14T02:47:29.573Z,9.22
2023-05-14T02:51:32.140Z,9.16
2023-05-14T02:55:34.716Z,9.11
2023-05-14T02:59:38.691Z,9.09
2023-05-14T03:03:41.911Z,8.93
2023-05-14T03:07:45.008Z,8.70
2023-05-14T03:11:47.711Z,8.53
2023-05-14T03:15:54.826Z,8.37
2023-05-14T03:19:57.666Z,8.35
2023-05-14T03:24:01.093Z,8.31
2023-05-14T03:28:04.216Z,8.32
2023-05-14T03:32:08.745Z,8.35
2023-05-14T03:36:11.344Z,8.39
2023-05-14T03:40:14.089Z,8.36
2023-05-14T03:44:16.690Z,8.35
2023-05-14T03:48:21.145Z,8.30
2023-05-14T03:52:23.800Z,8.29
2023-05-14T03:56:26.685Z,8.16
2023-05-14T04:00:29.446Z,8.01
2023-05-14T04:04:33.499Z,7.95
2023-05-14T04:08:36.257Z,7.89
2023-05-14T04:12:38.938Z,7.86
2023-05-14T04:16:41.575Z,7.90
2023-05-14T04:20:45.525Z,7.89
2023-05-14T04:24:48.142Z,7.92
2023-05-14T04:28:50.768Z,7.96
2023-05-14T04:32:53.596Z,7.99
2023-05-14T04:36:57.551Z,8.09
2023-05-14T04:41:00.287Z,8.20
2023-05-14T04:45:05.413Z,8.33
2023-05-14T04:49:08.113Z,8.41
2023-05-14T04:53:12.354Z,8.54
2023-05-14T04:57:14.927Z,8.64
2023-05-14T05:01:17.584Z,8.69
2023-05-14T05:05:20.657Z,8.78
2023-05-14T05:09:24.690Z,8.86
2023-05-14T05:13:27.348Z,8.94
2023-05-14T05:17:30.957Z,9.02
2023-05-14T05:21:33.758Z,9.06
2023-05-14T05:25:37.735Z,9.12
2023-05-14T05:29:40.287Z,9.23
2023-05-14T05:33:42.916Z,9.33
2023-05-14T05:37:46.065Z,9.47
2023-05-14T05:41:49.968Z,9.58
2023-05-14T05:45:52.546Z,9.73
2023-05-14T05:49:55.385Z,9.88
2023-05-14T05:53:58.812Z,9.98
2023-05-14T05:58:02.802Z,10.13
2023-05-14T06:02:05.933Z,10.41
2023-05-14T06:06:08.995Z,10.88
2023-05-14T06:10:11.945Z,11.21
2023-05-14T06:14:15.896Z,11.25
2023-05-14T06:18:18.492Z,11.34
2023-05-14T06:22:21.076Z,11.60
2023-05-14T06:26:24.354Z,11.68
2023-05-14T06:30:28.380Z,11.75
2023-05-14T06:34:31.227Z,11.81
2023-05-14T06:38:33.784Z,11.79
2023-05-14T06:42:36.342Z,11.83
2023-05-14T06:46:40.279Z,11.90
2023-05-14T06:50:42.846Z,11.98
2023-05-14T06:54:45.527Z,12.07
2023-05-14T06:58:48.116Z,12.16
2023-05-14T07:02:52.116Z,12.27
2023-05-14T07:06:54.797Z,12.42
2023-05-14T07:10:58.358Z,12.58
2023-05-14T07:15:00.922Z,12.68
2023-05-14T07:19:04.848Z,12.89
2023-05-14T07:23:07.439Z,13.13
2023-05-14T07:27:10.321Z,13.29
2023-05-14T07:31:12.891Z,13.35
2023-05-14T07:35:17.192Z,13.23
2023-05-14T07:39:19.850Z,13.16
2023-05-14T07:43:22.421Z,13.14
2023-05-14T07:47:25.066Z,13.19
2023-05-14T07:51:29.251Z,13.19
2023-05-14T07:55:31.852Z,13.46
2023-05-14T07:59:34.464Z,14.20
2023-05-14T08:03:37.409Z,14.96
2023-05-14T08:07:41.496Z,15.07
2023-05-14T08:11:44.162Z,15.25
2023-05-14T08:15:47.325Z,14.94
2023-05-14T08:19:49.932Z,14.82
2023-05-14T08:23:53.973Z,15.40
2023-05-14T08:27:56.537Z,15.14
2023-05-14T08:32:00.318Z,15.26
2023-05-14T08:36:07.342Z,15.10
2023-05-14T08:40:12.631Z,15.81
2023-05-14T08:44:19.379Z,16.33
2023-05-14T08:48:24.050Z,16.31
2023-05-14T08:52:26.901Z,16.15
2023-05-14T08:56:33.929Z,16.20
2023-05-14T09:00:37.294Z,16.41
2023-05-14T09:04:41.004Z,16.41
2023-05-14T09:08:43.636Z,16.56
2023-05-14T09:12:48.288Z,15.87
2023-05-14T09:16:52.363Z,16.10
2023-05-14T09:20:55.319Z,16.77
2023-05-14T09:25:05.910Z,17.18
2023-05-14T09:29:09.909Z,16.84
2023-05-14T09:33:12.526Z,16.53
2023-05-14T09:37:15.115Z,16.96
2023-05-14T09:41:17.751Z,17.24
2023-05-14T09:45:21.678Z,16.89
2023-05-14T09:49:25.475Z,17.00
2023-05-14T09:53:28.179Z,17.31
2023-05-14T09:57:30.925Z,17.31
2023-05-14T10:01:35.481Z,17.34
2023-05-14T10:05:41.009Z,17.76
2023-05-14T10:09:45.239Z,17.98
2023-05-14T10:13:52.969Z,18.36
2023-05-14T10:18:02.723Z,18.43
2023-05-14T10:22:08.070Z,18.41
2023-05-14T10:26:11.858Z,18.00
2023-05-14T10:30:15.251Z,18.11
2023-05-14T10:34:40.588Z,18.45
2023-05-14T10:38:43.202Z,18.26
2023-05-14T10:42:47.649Z,18.62
2023-05-14T10:46:50.250Z,19.02
2023-05-14T10:50:54.882Z,18.96
2023-05-14T10:55:02.884Z,17.74
2023-05-14T10:59:07.815Z,17.68
2023-05-14T11:03:13.112Z,18.85
2023-05-14T11:07:17.969Z,19.43
2023-05-14T11:11:20.655Z,18.93
2023-05-14T11:15:24.657Z,19.82
2023-05-14T11:19:28.245Z,20.54
2023-05-14T11:23:32.576Z,20.94
2023-05-14T11:27:36.649Z,21.18
2023-05-14T11:31:39.507Z,21.12
2023-05-14T11:35:45.298Z,19.85
2023-05-14T11:39:50.633Z,19.90
2023-05-14T11:43:53.252Z,19.60
2023-05-14T11:47:56.034Z,18.81
2023-05-14T11:51:59.388Z,18.04
2023-05-14T11:56:03.427Z,17.65
2023-05-14T12:00:10.260Z,17.42
2023-05-14T12:04:13.436Z,17.47
2023-05-14T12:08:22.242Z,17.32
2023-05-14T12:12:26.141Z,17.36
2023-05-14T12:16:33.979Z,17.53
2023-05-14T12:20:38.170Z,17.79
2023-05-14T12:24:41.159Z,18.00
2023-05-14T12:28:48.985Z,18.19
2023-05-14T12:32:52.877Z,18.10
2023-05-14T12:36:56.224Z,17.89
2023-05-14T12:40:58.807Z,17.88
2023-05-14T12:45:05.542Z,17.92
2023-05-14T12:49:08.193Z,17.87
2023-05-14T12:53:11.199Z,18.27
2023-05-14T12:57:13.827Z,18.31
2023-05-14T13:01:17.954Z,18.34
2023-05-14T13:05:20.768Z,18.20
2023-05-14T13:09:23.360Z,18.17
2023-05-14T13:13:26.267Z,18.18
2023-05-14T13:17:30.232Z,18.06
2023-05-14T13:21:32.865Z,18.12
2023-05-14T13:25:36.267Z,18.01
2023-05-14T13:29:38.853Z,17.88
2023-05-14T13:33:44.053Z,17.75
2023-05-14T13:37:46.877Z,17.53
2023-05-14T13:41:50.734Z,17.23
2023-05-14T13:45:53.370Z,16.56
2023-05-14T13:49:57.528Z,15.99
2023-05-14T13:54:00.205Z,15.64
2023-05-14T13:58:02.924Z,14.91
2023-05-14T14:02:06.336Z,14.17
2023-05-14T14:06:10.808Z,13.88
2023-05-14T14:10:13.677Z,12.98
2023-05-14T14:14:16.347Z,12.62
2023-05-14T14:18:18.934Z,12.44
2023-05-14T14:22:26.161Z,12.26
2023-05-14T14:26:30.847Z,12.08
2023-05-14T14:30:34.623Z,11.98
2023-05-14T14:34:37.258Z,12.10
2023-05-14T14:38:41.290Z,12.10
2023-05-14T14:42:45.199Z,12.20
2023-05-14T14:46:48.317Z,12.38
2023-05-14T14:50:51.931Z,12.26
2023-05-14T14:54:56.540Z,12.21
2023-05-14T14:58:59.138Z,12.34
2023-05-14T15:03:01.856Z,12.34
2023-05-14T15:07:04.612Z,12.31
2023-05-14T15:11:08.763Z,12.26
2023-05-14T15:15:11.838Z,12.33
2023-05-14T15:19:14.464Z,12.36
2023-05-14T15:23:17.295Z,12.40
2023-05-14T15:27:21.265Z,12.56
2023-05-14T15:31:24.040Z,12.66
2023-05-14T15:35:26.764Z,12.69
2023-05-14T15:39:32.145Z,12.61
2023-05-14T15:43:36.486Z,12.53
2023-05-14T15:47:39.140Z,12.62
2023-05-14T15:51:41.881Z,12.65
2023-05-14T15:55:44.892Z,12.51
2023-05-14T15:59:48.942Z,12.42
2023-05-14T16:03:51.752Z,12.50
2023-05-14T16:07:54.465Z,12.53
2023-05-14T16:11:57.305Z,12.65
2023-05-14T16:16:01.453Z,12.71
2023-05-14T16:20:05.287Z,12.64
2023-05-14T16:24:09.124Z,12.53
2023-05-14T16:28:11.744Z,12.64
2023-05-14T16:32:15.719Z,12.69
2023-05-14T16:36:19.632Z,12.71
2023-05-14T16:40:23.426Z,12.76
2023-05-14T16:44:26.288Z,12.98
2023-05-14T16:48:30.258Z,13.08
2023-05-14T16:52:32.972Z,12.90
2023-05-14T16:56:35.640Z,12.85
2023-05-14T17:00:38.311Z,12.90
2023-05-14T17:04:42.375Z,12.72
2023-05-14T17:08:45.093Z,12.71
2023-05-14T17:12:47.667Z,13.13
2023-05-14T17:16:50.407Z,13.91
2023-05-14T17:20:54.640Z,14.51
2023-05-14T17:24:57.244Z,14.65
2023-05-14T17:28:59.881Z,14.93
2023-05-14T17:33:02.536Z,14.76
2023-05-14T17:37:07.039Z,14.60
2023-05-14T17:41:09.726Z,14.47
2023-05-14T17:45:13.091Z,14.56
2023-05-14T17:49:16.088Z,14.32
2023-05-14T17:53:20.060Z,13.77
2023-05-14T17:57:22.787Z,13.53
2023-05-14T18:01:25.571Z,13.45
2023-05-14T18:05:30.086Z,13.40
2023-05-14T18:09:34.011Z,13.24
2023-05-14T18:13:36.634Z,13.13
2023-05-14T18:17:40.180Z,13.08
2023-05-14T18:21:44.144Z,13.06
2023-05-14T18:25:48.808Z,13.08
2023-05-14T18:29:51.917Z,13.09
2023-05-14T18:33:54.510Z,13.02
2023-05-14T18:37:57.190Z,12.99
2023-05-14T18:42:01.137Z,12.97
2023-05-14T18:46:03.890Z,12.97
2023-05-14T18:50:08.226Z,12.93
2023-05-14T18:54:10.842Z,12.84
2023-05-14T18:58:15.331Z,12.81
2023-05-14T19:02:18.118Z,12.63
2023-05-14T19:06:20.768Z,12.48
2023-05-14T19:10:24.053Z,12.35
2023-05-14T19:14:28.060Z,12.22
2023-05-14T19:18:31.036Z,12.14
2023-05-14T19:22:33.830Z,12.00
2023-05-14T19:26:36.452Z,11.96
2023-05-14T19:30:40.431Z,11.95
2023-05-14T19:34:43.120Z,11.85
2023-05-14T19:38:45.832Z,11.83
2023-05-14T19:42:48.412Z,11.75
2023-05-14T19:46:53.145Z,11.68
2023-05-14T19:50:56.310Z,11.59
2023-05-14T19:54:59.246Z,11.50
2023-05-14T19:59:01.903Z,11.38
2023-05-14T20:03:06.418Z,11.33
2023-05-14T20:07:10.031Z,11.26
2023-05-14T20:11:12.677Z,11.21
2023-05-14T20:15:15.276Z,11.17
2023-05-14T20:19:21.432Z,11.19
2023-05-14T20:23:24.144Z,11.16
2023-05-14T20:27:26.819Z,11.08
2023-05-14T20:31:29.454Z,11.07
2023-05-14T20:35:33.554Z,11.10
2023-05-14T20:39:36.412Z,11.18
2023-05-14T20:43:39.079Z,11.21
2023-05-14T20:47:41.714Z,11.05
2023-05-14T20:51:45.756Z,10.97
2023-05-14T20:55:48.560Z,10.96
2023-05-14T20:59:51.200Z,10.96
2023-05-14T21:03:53.927Z,10.99
2023-05-14T21:07:58.041Z,10.98
2023-05-14T21:12:00.675Z,10.94
2023-05-14T21:16:03.322Z,10.93
2023-05-14T21:20:06.999Z,10.87
2023-05-14T21:24:10.874Z,10.80
2023-05-14T21:28:13.442Z,10.78
2023-05-14T21:32:16.023Z,10.76
2023-05-14T21:36:18.993Z,10.78
2023-05-14T21:40:22.941Z,10.66
2023-05-14T21:44:25.479Z,10.62
2023-05-14T21:48:29.278Z,10.57
2023-05-14T21:52:31.935Z,10.46
2023-05-14T21:56:36.461Z,10.37
2023-05-14T22:00:39.967Z,10.24
2023-05-14T22:04:42.506Z,10.19
2023-05-14T22:08:45.241Z,10.16
2023-05-14T22:12:49.152Z,10.14
2023-05-14T22:16:52.075Z,10.03
2023-05-14T22:20:54.646Z,10.01
2023-05-14T22:24:57.437Z,9.98
2023-05-14T22:29:01.452Z,10.01
2023-05-14T22:33:04.096Z,9.97
2023-05-14T22:37:06.830Z,9.98
2023-05-14T22:41:09.349Z,9.99
2023-05-14T22:45:13.358Z,10.03
2023-05-14T22:49:15.983Z,10.04
2023-05-14T22:53:18.538Z,9.97
2023-05-14T22:57:21.156Z,9.87
2023-05-14T23:01:25.074Z,9.78
2023-05-14T23:05:27.678Z,9.66
2023-05-14T23:09:30.273Z,9.59
2023-05-14T23:13:33.186Z,9.58
2023-05-14T23:17:37.233Z,9.56
2023-05-14T23:21:39.872Z,9.52
2023-05-14T23:25:42.517Z,9.53
2023-05-14T23:29:45.115Z,9.45
2023-05-14T23:33:49.075Z,9.38
2023-05-14T23:37:51.765Z,9.36
2023-05-14T23:41:54.301Z,9.32
2023-05-14T23:45:57.126Z,9.32
2023-05-14T23:50:01.083Z,9.26
2023-05-14T23:54:03.918Z,9.25
2023-05-14T23:58:06.505Z,9.21
